Time;durP1;ratioP1;P1;durP2;ratioP2;P2;SDS_P1;SDS_P2;PMS_P1;PMS_P2;Temp;Humidity;BMP_temperature;BMP_pressure;BME280_temperature;BME280_humidity;BME280_pressure;Samples;Min_cycle;Max_cycle;Signal;HPM_P1;HPM_P2
2023/08/04 00:01:39;;;;;;;0.08;0.08;;;18.70;97.90;18.90;99701.00;;;;4991315;27;107291;-64
2023/08/04 00:04:08;;;;;;;0.70;0.20;;;18.70;98.00;18.90;99698.00;;;;4990671;27;103032;-65
2023/08/04 00:06:34;;;;;;;0.22;0.22;;;18.80;98.10;18.90;99698.00;;;;4989753;27;112675;-65
2023/08/04 00:09:02;;;;;;;0.10;0.10;;;19.70;98.50;18.90;99706.00;;;;4992436;27;110857;-66
2023/08/04 00:11:28;;;;;;;0.10;0.10;;;18.70;98.20;18.90;99712.00;;;;4991524;28;88673;-66
2023/08/04 00:13:54;;;;;;;0.10;0.10;;;18.70;98.30;18.90;99725.00;;;;4992605;27;108795;-65
2023/08/04 00:16:19;;;;;;;0.10;0.10;;;18.80;98.50;18.90;99724.00;;;;4990023;27;117730;-65
2023/08/04 00:18:45;;;;;;;0.40;0.30;;;18.80;98.40;19.00;99717.00;;;;4992366;28;87839;-64
2023/08/04 00:21:11;;;;;;;0.20;0.20;;;18.80;98.50;19.00;99714.00;;;;4989909;27;108359;-64
2023/08/04 00:23:36;;;;;;;0.20;0.20;;;18.80;98.50;19.00;99720.00;;;;4991573;27;117836;-65
2023/08/04 00:26:02;;;;;;;0.30;0.30;;;18.80;98.50;19.00;99719.00;;;;4992042;27;117841;-64
2023/08/04 00:28:28;;;;;;;0.20;0.20;;;18.90;98.60;19.00;99725.00;;;;4993862;27;109125;-64
2023/08/04 00:30:53;;;;;;;0.38;0.38;;;18.90;98.60;19.00;99723.00;;;;4991093;27;88035;-65
2023/08/04 00:33:19;;;;;;;2.72;0.65;;;18.90;98.60;19.10;99730.00;;;;4992866;27;116200;-65
2023/08/04 00:35:45;;;;;;;0.52;0.17;;;18.90;98.60;19.10;99728.00;;;;4994802;27;88822;-64
2023/08/04 00:38:10;;;;;;;0.17;0.17;;;18.90;98.60;19.00;99732.00;;;;4992391;28;110850;-65
2023/08/04 00:40:36;;;;;;;0.20;0.20;;;18.90;98.70;19.10;99725.00;;;;4990453;28;107529;-63
2023/08/04 00:43:02;;;;;;;0.68;0.28;;;18.90;98.80;19.10;99730.00;;;;4989349;27;87863;-63
2023/08/04 00:45:30;;;;;;;0.45;0.15;;;18.90;98.70;19.10;99730.00;;;;4991066;27;117516;-64
2023/08/04 00:47:56;;;;;;;0.30;0.30;;;18.90;98.90;19.10;99720.00;;;;4996296;28;88050;-64
2023/08/04 00:50:22;;;;;;;0.10;0.10;;;18.90;98.90;19.10;99727.00;;;;4988675;27;108252;-62
2023/08/04 00:52:49;;;;;;;0.13;0.13;;;18.90;99.00;19.10;99726.00;;;;4989208;27;87251;-63
2023/08/04 00:55:15;;;;;;;0.75;0.40;;;18.90;99.00;19.10;99715.00;;;;4995093;28;117892;-63
2023/08/04 00:57:43;;;;;;;0.30;0.10;;;19.00;99.00;19.10;99720.00;;;;4989999;27;110970;-64
2023/08/04 01:00:09;;;;;;;0.40;0.40;;;19.00;99.30;19.10;99718.00;;;;4995093;27;88767;-64
2023/08/04 01:02:34;;;;;;;0.50;0.50;;;18.90;99.00;19.10;99721.00;;;;4987038;27;110119;-66
2023/08/04 01:05:02;;;;;;;0.13;0.13;;;18.90;99.10;19.00;99713.00;;;;4990354;27;117167;-64
2023/08/04 01:07:35;;;;;;;0.28;0.28;;;18.90;99.20;19.00;99709.00;;;;4988664;27;87913;-65
2023/08/04 01:10:27;;;;;;;0.10;0.10;;;18.90;99.20;19.00;99706.00;;;;4991913;27;88127;-65
2023/08/04 01:13:03;;;;;;;0.88;0.22;;;18.90;99.40;19.00;99717.00;;;;4991808;27;88021;-64
2023/08/04 01:15:30;;;;;;;0.20;0.20;;;18.90;99.50;19.00;99730.00;;;;4993217;27;107555;-64
2023/08/04 01:17:57;;;;;;;0.35;0.30;;;18.80;99.60;19.00;99729.00;;;;4993004;27;87052;-63
2023/08/04 01:20:27;;;;;;;0.32;0.32;;;18.80;99.60;19.00;99734.00;;;;4991769;27;89540;-64
2023/08/04 01:22:53;;;;;;;0.10;0.10;;;18.80;99.70;18.90;99729.00;;;;4987395;27;116553;-64
2023/08/04 01:25:29;;;;;;;0.45;0.35;;;18.70;99.80;18.90;99728.00;;;;4989583;27;88707;-65
2023/08/04 01:28:01;;;;;;;0.45;0.25;;;18.80;99.90;18.90;99721.00;;;;4996116;27;87690;-64
2023/08/04 01:30:30;;;;;;;0.10;0.10;;;18.80;99.90;18.90;99729.00;;;;4997366;27;87586;-62
2023/08/04 01:32:56;;;;;;;0.28;0.28;;;18.80;99.90;18.90;99736.00;;;;4998891;27;88630;-64
2023/08/04 01:35:22;;;;;;;0.90;0.40;;;18.80;99.90;18.90;99751.00;;;;4992289;27;117083;-64
2023/08/04 01:37:47;;;;;;;0.30;0.30;;;18.80;99.90;18.90;99754.00;;;;4993956;27;88414;-64
2023/08/04 01:40:13;;;;;;;0.20;0.20;;;18.70;99.90;18.90;99760.00;;;;4993036;27;107361;-65
2023/08/04 01:42:40;;;;;;;0.47;0.47;;;18.80;99.90;18.90;99758.00;;;;4988871;27;111822;-64
2023/08/04 01:45:07;;;;;;;0.80;0.40;;;19.20;99.90;18.90;99769.00;;;;4993395;27;95058;-64
2023/08/04 01:47:32;;;;;;;0.20;0.20;;;18.80;99.90;19.00;99768.00;;;;4998891;27;87748;-64
2023/08/04 01:49:58;;;;;;;1.02;0.30;;;18.80;99.90;19.00;99774.00;;;;4993264;27;88635;-63
2023/08/04 01:52:24;;;;;;;0.22;0.22;;;18.80;99.90;19.00;99779.00;;;;4994694;27;88668;-63
2023/08/04 01:54:49;;;;;;;0.80;0.50;;;18.80;99.90;19.00;99784.00;;;;4990250;27;87927;-64
2023/08/04 01:57:21;;;;;;;0.20;0.20;;;18.50;99.90;19.00;99788.00;;;;4997607;27;87753;-64
2023/08/04 01:59:47;;;;;;;0.40;0.30;;;18.90;99.90;19.00;99803.00;;;;4988289;27;89051;-64
2023/08/04 02:02:12;;;;;;;0.30;0.30;;;18.80;99.90;19.00;99795.00;;;;4995017;27;117888;-64
2023/08/04 02:04:38;;;;;;;0.15;0.15;;;18.80;99.90;19.00;99798.00;;;;4989075;27;117763;-64
2023/08/04 02:07:04;;;;;;;0.17;0.13;;;18.80;99.90;19.00;99789.00;;;;4989688;27;109884;-65
2023/08/04 02:09:30;;;;;;;0.17;0.17;;;18.80;99.90;19.00;99802.00;;;;4994423;27;98721;-65
2023/08/04 02:11:55;;;;;;;0.68;0.30;;;18.90;99.90;19.00;99796.00;;;;4991122;27;96535;-65
2023/08/04 02:14:22;;;;;;;0.32;0.32;;;18.90;99.90;19.00;99785.00;;;;4990923;27;88751;-63
2023/08/04 02:16:47;;;;;;;0.93;0.17;;;18.80;99.90;19.00;99790.00;;;;4992443;27;110647;-64
2023/08/04 02:19:13;;;;;;;0.10;0.10;;;18.80;99.90;19.00;99791.00;;;;4995359;27;109338;-63
2023/08/04 02:21:39;;;;;;;0.38;0.38;;;18.80;99.90;19.00;99799.00;;;;4991706;27;91666;-63
2023/08/04 02:24:05;;;;;;;0.30;0.30;;;18.80;99.90;18.90;99797.00;;;;4994484;27;89428;-63
2023/08/04 02:26:31;;;;;;;0.47;0.47;;;18.80;99.90;18.90;99800.00;;;;4990018;27;110663;-64
2023/08/04 02:28:57;;;;;;;0.20;0.20;;;18.80;99.90;18.90;99791.00;;;;4992746;27;88254;-63
2023/08/04 02:31:28;;;;;;;0.20;0.20;;;18.80;99.90;18.90;99808.00;;;;4998046;27;115844;-64
2023/08/04 02:33:54;;;;;;;0.20;0.20;;;18.80;99.90;18.90;99793.00;;;;4991742;27;88477;-65
2023/08/04 02:36:21;;;;;;;0.47;0.40;;;18.80;99.90;18.90;99800.00;;;;4999487;27;87602;-64
2023/08/04 02:38:47;;;;;;;0.10;0.10;;;18.80;99.90;18.90;99800.00;;;;4993514;27;88992;-64
2023/08/04 02:41:13;;;;;;;0.22;0.22;;;18.80;99.90;18.90;99797.00;;;;4990071;27;88305;-63
2023/08/04 02:43:38;;;;;;;0.90;0.45;;;18.80;99.90;18.90;99798.00;;;;4993534;27;118188;-64
2023/08/04 02:46:04;;;;;;;0.20;0.20;;;18.80;99.90;18.90;99806.00;;;;4992279;27;110387;-65
2023/08/04 02:48:31;;;;;;;0.25;0.25;;;18.80;99.90;18.90;99809.00;;;;4992116;27;109081;-64
2023/08/04 02:51:02;;;;;;;0.10;0.10;;;18.70;99.90;18.90;99812.00;;;;4992177;27;88286;-64
2023/08/04 02:53:29;;;;;;;2.17;0.68;;;18.80;99.90;18.90;99819.00;;;;4993565;27;88249;-64
2023/08/04 02:55:55;;;;;;;0.30;0.30;;;18.80;99.90;18.90;99808.00;;;;4993785;27;86980;-64
2023/08/04 02:58:22;;;;;;;0.28;0.17;;;18.90;99.90;18.90;99828.00;;;;4994615;27;109433;-64
2023/08/04 03:00:48;;;;;;;0.30;0.30;;;18.80;99.90;18.90;99836.00;;;;4993835;27;88646;-64
2023/08/04 03:03:13;;;;;;;0.30;0.30;;;18.70;99.90;18.90;99833.00;;;;4992765;27;116602;-64
2023/08/04 03:05:39;;;;;;;0.43;0.30;;;18.70;99.90;18.90;99832.00;;;;4991059;28;88019;-64
2023/08/04 03:08:05;;;;;;;0.35;0.35;;;18.70;99.90;18.90;99832.00;;;;4990009;27;107319;-64
2023/08/04 03:10:30;;;;;;;0.43;0.30;;;18.80;99.90;18.90;99845.00;;;;4993370;27;112100;-64
2023/08/04 03:12:56;;;;;;;1.25;0.40;;;18.70;99.90;18.90;99845.00;;;;4993225;27;117998;-66
2023/08/04 03:15:22;;;;;;;0.30;0.20;;;18.70;99.90;18.90;99847.00;;;;4989307;27;109906;-63
2023/08/04 03:17:47;;;;;;;0.50;0.30;;;18.70;99.90;18.90;99842.00;;;;4993235;27;87702;-65
2023/08/04 03:20:13;;;;;;;1.75;0.20;;;18.70;99.90;18.80;99848.00;;;;4991540;27;115884;-63
2023/08/04 03:22:39;;;;;;;0.45;0.20;;;18.70;99.90;18.80;99839.00;;;;4993421;27;97061;-64
2023/08/04 03:25:06;;;;;;;0.30;0.30;;;18.70;99.90;18.80;99844.00;;;;4989953;27;109571;-63
2023/08/04 03:27:32;;;;;;;0.30;0.30;;;18.70;99.90;18.80;99838.00;;;;4991017;27;88614;-65
2023/08/04 03:29:57;;;;;;;0.40;0.40;;;18.70;99.90;18.80;99836.00;;;;4992507;27;116857;-64
2023/08/04 03:32:23;;;;;;;0.43;0.40;;;18.70;99.90;18.80;99840.00;;;;4993039;27;118020;-64
2023/08/04 03:34:49;;;;;;;0.13;0.13;;;18.70;99.90;18.80;99846.00;;;;4997219;27;109574;-64
2023/08/04 03:37:14;;;;;;;0.30;0.30;;;18.60;99.90;18.70;99852.00;;;;4996744;27;108025;-64
2023/08/04 03:39:40;;;;;;;0.30;0.30;;;18.60;99.90;18.70;99850.00;;;;4997419;27;107923;-64
2023/08/04 03:42:06;;;;;;;0.40;0.40;;;18.60;99.90;18.70;99859.00;;;;4998457;27;116510;-64
2023/08/04 03:44:31;;;;;;;0.30;0.30;;;18.60;99.90;18.70;99864.00;;;;4995189;27;109479;-64
2023/08/04 03:46:57;;;;;;;0.20;0.20;;;18.80;99.90;18.70;99858.00;;;;4994086;27;87785;-64
2023/08/04 03:49:23;;;;;;;1.33;0.25;;;18.50;99.90;18.60;99879.00;;;;4992359;27;88474;-64
2023/08/04 03:51:48;;;;;;;0.35;0.30;;;18.50;99.90;18.60;99878.00;;;;4996378;27;88987;-64
2023/08/04 03:54:14;;;;;;;0.25;0.25;;;18.50;99.90;18.60;99873.00;;;;4995513;27;108471;-64
2023/08/04 03:56:40;;;;;;;0.20;0.20;;;18.50;99.90;18.60;99862.00;;;;4989353;27;106226;-65
2023/08/04 03:59:11;;;;;;;0.20;0.17;;;18.50;99.90;18.50;99869.00;;;;4989785;27;116184;-64
2023/08/04 04:01:37;;;;;;;0.40;0.38;;;18.40;99.90;18.50;99877.00;;;;4991398;27;88810;-64
2023/08/04 04:04:03;;;;;;;1.55;0.52;;;18.50;99.90;18.40;99880.00;;;;4998257;27;87480;-63
2023/08/04 04:06:29;;;;;;;0.30;0.30;;;18.30;99.90;18.30;99889.00;;;;4993747;27;87713;-63
2023/08/04 04:08:55;;;;;;;0.50;0.30;;;18.40;99.90;18.20;99890.00;;;;4992791;27;89140;-64
2023/08/04 04:11:20;;;;;;;0.28;0.28;;;18.20;99.90;18.20;99892.00;;;;4989212;27;87951;-64
2023/08/04 04:13:46;;;;;;;0.55;0.55;;;18.10;99.90;18.10;99898.00;;;;4991842;28;103605;-64
2023/08/04 04:16:12;;;;;;;0.25;0.25;;;18.10;99.90;18.10;99897.00;;;;4988490;27;108560;-64
2023/08/04 04:18:37;;;;;;;0.30;0.30;;;18.00;99.90;18.00;99908.00;;;;4996616;27;89112;-64
2023/08/04 04:21:03;;;;;;;0.30;0.30;;;17.90;99.90;17.90;99909.00;;;;4991185;27;116942;-63
2023/08/04 04:23:29;;;;;;;0.38;0.20;;;17.80;99.90;17.70;99915.00;;;;4990265;28;108439;-64
2023/08/04 04:25:54;;;;;;;0.50;0.28;;;17.70;99.90;17.60;99909.00;;;;5007984;27;87606;-63
2023/08/04 04:28:20;;;;;;;0.30;0.30;;;17.50;99.90;17.40;99913.00;;;;4991446;27;118209;-64
2023/08/04 04:30:46;;;;;;;0.38;0.38;;;17.40;99.90;17.30;99907.00;;;;4989382;27;94224;-65
2023/08/04 04:33:11;;;;;;;1.30;0.63;;;17.20;99.90;17.10;99912.00;;;;4991071;27;106437;-65
2023/08/04 04:35:37;;;;;;;0.55;0.43;;;17.20;99.90;17.00;99906.00;;;;4997501;27;88959;-63
2023/08/04 04:38:03;;;;;;;0.50;0.47;;;17.00;99.90;16.90;99907.00;;;;4992924;27;112991;-63
2023/08/04 04:40:28;;;;;;;0.50;0.50;;;16.90;99.90;16.90;99919.00;;;;4991521;28;88887;-63
2023/08/04 04:42:54;;;;;;;0.30;0.30;;;16.90;99.90;16.80;99922.00;;;;4986940;27;110423;-63
2023/08/04 04:45:20;;;;;;;0.70;0.70;;;16.70;99.90;16.80;99931.00;;;;4986745;27;107793;-63
2023/08/04 04:47:46;;;;;;;0.75;0.50;;;16.70;99.90;16.70;99925.00;;;;4986916;27;115434;-63
2023/08/04 04:50:11;;;;;;;1.15;0.57;;;16.60;99.90;16.70;99928.00;;;;4988641;27;97805;-63
2023/08/04 04:52:37;;;;;;;0.90;0.60;;;16.60;99.90;16.70;99927.00;;;;4991114;27;87243;-64
2023/08/04 04:55:05;;;;;;;0.43;0.43;;;16.60;99.90;16.70;99926.00;;;;4991290;27;107186;-63
2023/08/04 04:57:31;;;;;;;1.15;0.47;;;16.60;99.90;16.60;99929.00;;;;4992785;27;107585;-64
2023/08/04 04:59:56;;;;;;;1.27;0.70;;;16.60;99.90;16.70;99926.00;;;;4993921;27;87691;-64
2023/08/04 05:02:22;;;;;;;2.35;0.70;;;16.60;99.90;16.70;99929.00;;;;4993987;27;89190;-64
2023/08/04 05:04:48;;;;;;;0.65;0.60;;;16.60;99.90;16.70;99921.00;;;;4990792;27;109023;-64
2023/08/04 05:07:14;;;;;;;0.77;0.75;;;16.60;99.90;16.70;99925.00;;;;4991722;27;115789;-64
2023/08/04 05:09:40;;;;;;;0.70;0.60;;;16.60;99.90;16.80;99932.00;;;;4988405;27;117437;-63
2023/08/04 05:12:07;;;;;;;0.70;0.57;;;16.70;99.90;16.80;99935.00;;;;4991928;27;109666;-62
2023/08/04 05:14:34;;;;;;;0.82;0.80;;;16.70;99.90;17.00;99942.00;;;;4993808;27;97765;-63
2023/08/04 05:17:00;;;;;;;0.70;0.70;;;16.80;99.90;17.00;99938.00;;;;4991663;27;88004;-62
2023/08/04 05:19:25;;;;;;;1.05;0.95;;;16.90;99.90;17.10;99945.00;;;;4988002;28;99556;-63
2023/08/04 05:21:51;;;;;;;0.63;0.50;;;17.00;99.90;17.20;99952.00;;;;4991207;27;110475;-64
2023/08/04 05:24:17;;;;;;;0.73;0.55;;;17.00;99.90;17.30;99952.00;;;;4993262;27;109033;-63
2023/08/04 05:26:43;;;;;;;0.85;0.75;;;17.10;99.90;17.40;99949.00;;;;4988320;27;106869;-63
2023/08/04 05:29:08;;;;;;;0.50;0.50;;;17.20;99.90;17.50;99936.00;;;;4991889;27;106593;-64
2023/08/04 05:31:34;;;;;;;0.70;0.70;;;17.30;99.90;17.60;99925.00;;;;4991976;27;109792;-64
2023/08/04 05:34:01;;;;;;;1.23;0.98;;;17.40;99.90;17.70;99935.00;;;;4994709;27;87825;-65
2023/08/04 05:36:27;;;;;;;0.40;0.40;;;17.50;99.90;17.80;99938.00;;;;4986923;27;87987;-65
2023/08/04 05:38:56;;;;;;;1.00;0.90;;;17.60;99.90;17.90;99948.00;;;;4990036;27;88284;-65
2023/08/04 05:41:21;;;;;;;0.57;0.45;;;17.70;99.90;17.90;99958.00;;;;4993331;27;110933;-65
2023/08/04 05:43:47;;;;;;;1.55;1.15;;;17.80;99.90;18.00;99967.00;;;;4988519;27;107298;-66
2023/08/04 05:46:15;;;;;;;1.17;0.93;;;17.90;99.90;18.00;99984.00;;;;4990031;27;117164;-64
2023/08/04 05:48:41;;;;;;;1.30;1.08;;;17.90;99.90;18.00;99978.00;;;;4991696;27;87958;-65
2023/08/04 05:51:06;;;;;;;0.80;0.80;;;17.90;99.90;18.00;99981.00;;;;4987682;27;87763;-66
2023/08/04 05:53:32;;;;;;;1.55;1.20;;;17.90;99.90;18.10;99987.00;;;;4988197;27;88654;-65
2023/08/04 05:55:58;;;;;;;1.45;1.00;;;18.00;99.90;18.10;99982.00;;;;4994446;27;87899;-65
2023/08/04 05:58:24;;;;;;;1.40;0.90;;;18.00;99.90;18.10;99990.00;;;;4990682;27;118193;-65
2023/08/04 06:00:49;;;;;;;1.63;1.20;;;18.00;99.90;18.20;99984.00;;;;4995688;27;111369;-65
2023/08/04 06:03:15;;;;;;;0.90;0.90;;;18.00;99.90;18.30;99986.00;;;;5004197;27;88702;-65
2023/08/04 06:05:41;;;;;;;1.17;1.08;;;18.10;99.90;18.40;99984.00;;;;4988530;27;118289;-64
2023/08/04 06:08:07;;;;;;;1.90;0.70;;;18.60;99.90;18.50;99984.00;;;;4993591;27;87426;-65
2023/08/04 06:10:33;;;;;;;3.38;1.50;;;18.30;99.90;18.60;99990.00;;;;4991858;27;111346;-64
2023/08/04 06:13:00;;;;;;;1.98;1.73;;;18.40;99.90;18.80;99993.00;;;;4974869;27;87815;-64
2023/08/04 06:15:26;;;;;;;1.20;1.10;;;18.60;99.90;19.00;99992.00;;;;4990786;27;88620;-64
2023/08/04 06:17:52;;;;;;;5.28;1.60;;;18.80;99.90;19.10;99994.00;;;;4992422;27;88941;-65
2023/08/04 06:20:17;;;;;;;2.15;1.95;;;18.90;99.90;19.10;99999.00;;;;4998417;27;103220;-65
2023/08/04 06:22:47;;;;;;;2.97;2.25;;;19.00;99.90;19.10;100001.00;;;;4991315;27;92427;-65
2023/08/04 06:25:14;;;;;;;1.50;1.05;;;18.90;99.90;19.00;100003.00;;;;4992746;27;89186;-64
2023/08/04 06:27:40;;;;;;;3.80;1.77;;;18.90;99.90;19.10;100013.00;;;;4992413;27;88370;-65
2023/08/04 06:30:07;;;;;;;1.30;0.88;;;18.90;99.90;19.10;100009.00;;;;4994496;27;104613;-66
2023/08/04 06:32:32;;;;;;;1.23;1.02;;;18.90;99.90;19.20;100015.00;;;;4990495;28;101074;-64
2023/08/04 06:34:58;;;;;;;0.70;0.70;;;19.00;99.90;19.30;100018.00;;;;4991279;27;117127;-65
2023/08/04 06:37:24;;;;;;;2.67;1.33;;;19.10;99.90;19.30;100018.00;;;;4991367;27;116673;-64
2023/08/04 06:39:50;;;;;;;1.00;0.82;;;19.10;99.90;19.40;100035.00;;;;5004410;27;90603;-65
2023/08/04 06:42:17;;;;;;;1.30;1.17;;;19.20;99.90;19.40;100038.00;;;;4992865;27;88814;-65
2023/08/04 06:44:43;;;;;;;3.42;1.00;;;19.20;99.90;19.40;100037.00;;;;4990903;27;89235;-67
2023/08/04 06:47:08;;;;;;;1.15;1.00;;;19.20;99.90;19.30;100038.00;;;;4991172;27;89999;-64
2023/08/04 06:49:35;;;;;;;1.45;1.33;;;19.20;99.90;19.20;100046.00;;;;4989826;27;108772;-65
2023/08/04 06:52:02;;;;;;;1.38;1.17;;;19.10;99.90;19.20;100041.00;;;;4994562;27;87753;-64
2023/08/04 06:54:27;;;;;;;1.95;1.23;;;19.10;99.90;19.20;100059.00;;;;4994434;27;98113;-63
2023/08/04 06:56:53;;;;;;;3.40;1.58;;;19.10;99.90;19.30;100057.00;;;;4991225;27;87571;-63
2023/08/04 06:59:19;;;;;;;1.17;0.88;;;19.10;99.90;19.30;100064.00;;;;5001647;27;86589;-63
2023/08/04 07:01:44;;;;;;;1.38;0.80;;;19.20;99.90;19.30;100063.00;;;;4990760;27;108311;-64
2023/08/04 07:04:10;;;;;;;1.67;1.35;;;19.20;99.90;19.40;100075.00;;;;4991524;27;117490;-64
2023/08/04 07:06:51;;;;;;;4.32;1.45;;;19.20;99.90;19.50;100065.00;;;;4989904;27;117519;-65
2023/08/04 07:09:16;;;;;;;1.80;1.50;;;19.80;99.90;19.60;100058.00;;;;4992878;27;110187;-64
2023/08/04 07:11:42;;;;;;;1.00;0.88;;;19.40;99.90;19.70;100070.00;;;;4991224;27;108785;-64
2023/08/04 07:14:08;;;;;;;2.75;1.25;;;19.50;99.90;19.80;100063.00;;;;4993027;27;88741;-64
2023/08/04 07:16:34;;;;;;;1.10;1.00;;;19.60;99.90;19.80;100066.00;;;;5003041;27;122487;-64
2023/08/04 07:19:00;;;;;;;1.83;1.20;;;19.60;99.90;19.90;100073.00;;;;4991769;27;87827;-64
2023/08/04 07:21:25;;;;;;;1.02;0.93;;;19.70;99.90;19.90;100079.00;;;;4986951;27;108747;-64
2023/08/04 07:23:51;;;;;;;1.38;1.27;;;19.70;99.90;20.00;100079.00;;;;4991755;27;117752;-65
2023/08/04 07:26:17;;;;;;;3.97;1.05;;;19.80;99.90;20.00;100084.00;;;;4990332;27;99316;-64
2023/08/04 07:28:43;;;;;;;3.13;1.40;;;19.80;99.90;20.00;100082.00;;;;4998279;27;87526;-64
2023/08/04 07:31:09;;;;;;;1.67;1.58;;;19.90;99.90;20.10;100087.00;;;;4987966;27;88815;-64
2023/08/04 07:33:36;;;;;;;4.68;1.55;;;19.90;99.90;20.10;100081.00;;;;4997607;27;88090;-64
2023/08/04 07:36:03;;;;;;;2.15;1.73;;;19.90;99.90;20.10;100086.00;;;;5000960;27;87798;-64
2023/08/04 07:38:30;;;;;;;2.30;1.25;;;19.90;99.90;20.00;100092.00;;;;4990844;27;90582;-64
2023/08/04 07:40:57;;;;;;;1.35;1.25;;;19.90;99.90;20.00;100096.00;;;;4990688;27;101346;-63
2023/08/04 07:43:24;;;;;;;3.70;2.38;;;19.90;99.90;20.00;100094.00;;;;4987346;27;88390;-63
2023/08/04 07:45:50;;;;;;;3.30;1.27;;;19.90;99.90;20.00;100105.00;;;;4993359;27;87665;-64
2023/08/04 07:48:15;;;;;;;2.65;1.13;;;19.90;99.90;20.00;100103.00;;;;4993843;28;87209;-64
2023/08/04 07:50:44;;;;;;;1.70;1.58;;;19.80;99.90;20.00;100105.00;;;;4991027;27;108256;-63
2023/08/04 07:53:10;;;;;;;1.33;1.05;;;19.90;99.90;20.00;100108.00;;;;4991069;27;91447;-63
2023/08/04 07:55:36;;;;;;;1.20;1.10;;;19.90;99.90;20.00;100114.00;;;;4997825;28;90606;-63
2023/08/04 07:58:06;;;;;;;1.10;1.00;;;19.90;99.90;20.00;100124.00;;;;4987033;27;87468;-63
2023/08/04 08:00:32;;;;;;;2.33;2.08;;;19.90;99.90;20.00;100113.00;;;;4989345;27;87952;-64
2023/08/04 08:02:58;;;;;;;2.85;1.63;;;19.90;99.90;19.90;100121.00;;;;4995899;27;89008;-63
2023/08/04 08:05:24;;;;;;;3.20;1.80;;;19.80;99.90;19.90;100120.00;;;;4989781;27;106162;-64
2023/08/04 08:07:50;;;;;;;3.83;2.67;;;19.70;99.90;19.80;100112.00;;;;4988032;27;110278;-63
2023/08/04 08:10:16;;;;;;;2.67;2.20;;;19.70;99.90;19.80;100109.00;;;;4990216;28;98536;-63
2023/08/04 08:12:42;;;;;;;7.43;2.72;;;19.70;99.90;19.90;100107.00;;;;4994374;27;88026;-63
2023/08/04 08:15:08;;;;;;;3.05;1.60;;;19.70;99.90;20.10;100109.00;;;;4989440;27;87857;-63
2023/08/04 08:17:34;;;;;;;2.05;1.85;;;19.80;99.90;20.30;100113.00;;;;4991149;28;101722;-64
2023/08/04 08:19:59;;;;;;;1.70;1.52;;;20.00;99.90;20.70;100115.00;;;;4990887;27;108608;-66
2023/08/04 08:22:25;;;;;;;4.75;2.30;;;20.30;99.90;21.00;100108.00;;;;4994848;27;112157;-63
2023/08/04 08:24:55;;;;;;;8.38;6.32;;;20.70;99.90;21.40;100118.00;;;;4987448;27;116267;-63
2023/08/04 08:27:20;;;;;;;3.08;2.25;;;21.00;99.90;21.60;100115.00;;;;4984474;27;87750;-63
2023/08/04 08:29:48;;;;;;;3.35;1.88;;;21.20;99.90;21.70;100115.00;;;;4995182;27;87886;-64
2023/08/04 08:32:13;;;;;;;2.15;1.15;;;21.40;99.90;21.80;100138.00;;;;4997028;27;87626;-64
2023/08/04 08:34:39;;;;;;;1.67;0.93;;;21.60;99.90;21.90;100135.00;;;;4987404;27;118032;-63
2023/08/04 08:37:08;;;;;;;0.90;0.90;;;21.60;99.90;21.80;100139.00;;;;4991909;27;109595;-64
2023/08/04 08:39:33;;;;;;;1.55;1.05;;;21.60;99.90;21.70;100141.00;;;;4993299;27;108608;-64
2023/08/04 08:41:59;;;;;;;1.83;1.33;;;21.50;99.90;21.70;100140.00;;;;4993308;27;101082;-63
2023/08/04 08:44:25;;;;;;;1.48;1.05;;;21.60;99.90;21.60;100151.00;;;;4994539;27;109574;-64
2023/08/04 08:46:52;;;;;;;1.63;1.30;;;21.50;99.90;21.50;100153.00;;;;4992242;27;110873;-64
2023/08/04 08:49:24;;;;;;;1.60;1.50;;;21.30;99.90;21.30;100162.00;;;;4994215;27;92859;-64
2023/08/04 08:51:52;;;;;;;1.85;1.60;;;21.20;99.90;21.00;100158.00;;;;5002328;27;87704;-63
2023/08/04 08:54:26;;;;;;;1.75;0.98;;;21.00;99.90;20.50;100168.00;;;;4997998;27;88721;-65
2023/08/04 08:56:51;;;;;;;2.40;1.48;;;20.60;99.90;19.90;100163.00;;;;4992909;27;109604;-63
2023/08/04 08:59:18;;;;;;;1.73;1.63;;;20.10;99.90;19.40;100153.00;;;;4990759;27;108533;-64
2023/08/04 09:01:44;;;;;;;4.93;1.35;;;19.80;99.90;19.10;100165.00;;;;4994103;27;87101;-62
2023/08/04 09:04:09;;;;;;;1.70;1.60;;;19.20;99.90;18.90;100165.00;;;;4995630;27;117212;-62
2023/08/04 09:06:35;;;;;;;1.35;1.02;;;19.00;99.90;18.80;100177.00;;;;4991734;27;87887;-62
2023/08/04 09:09:02;;;;;;;2.30;2.03;;;18.80;99.90;18.70;100181.00;;;;5000937;27;109035;-62
2023/08/04 09:11:31;;;;;;;2.35;1.92;;;18.70;99.90;18.60;100172.00;;;;4991924;27;87880;-63
2023/08/04 09:14:00;;;;;;;3.10;1.85;;;18.60;99.90;18.60;100175.00;;;;4999955;27;87798;-63
2023/08/04 09:16:36;;;;;;;1.33;1.23;;;18.40;99.90;18.50;100177.00;;;;4997262;27;89844;-63
2023/08/04 09:19:06;;;;;;;2.33;1.58;;;18.40;99.90;18.50;100159.00;;;;4996440;27;87964;-63
2023/08/04 09:21:34;;;;;;;2.00;1.85;;;18.40;99.90;18.60;100159.00;;;;4994802;27;87815;-63
2023/08/04 09:24:02;;;;;;;2.15;1.70;;;18.50;99.90;18.60;100146.00;;;;4993114;27;87788;-63
2023/08/04 09:26:48;;;;;;;8.73;5.90;;;18.50;99.90;18.70;100150.00;;;;4988787;27;89250;-64
2023/08/04 09:29:14;;;;;;;5.40;2.10;;;18.60;99.90;18.80;100149.00;;;;5002507;27;87602;-63
2023/08/04 09:31:44;;;;;;;1.83;1.73;;;18.60;99.90;18.90;100149.00;;;;4996097;27;88187;-63
2023/08/04 09:34:11;;;;;;;2.33;2.13;;;18.70;99.90;19.00;100148.00;;;;4993455;27;88729;-64
2023/08/04 09:36:46;;;;;;;5.78;2.17;;;18.80;99.90;19.20;100157.00;;;;4989832;27;109318;-63
2023/08/04 09:39:24;;;;;;;4.00;2.30;;;19.00;99.90;19.50;100159.00;;;;4992304;27;87657;-65
2023/08/04 09:41:50;;;;;;;5.57;2.22;;;19.30;99.90;19.80;100159.00;;;;4991531;27;114586;-65
2023/08/04 09:44:16;;;;;;;3.13;2.00;;;19.50;99.90;20.10;100147.00;;;;4987825;27;115636;-64
2023/08/04 09:46:49;;;;;;;1.52;1.42;;;19.80;99.90;20.40;100149.00;;;;5001115;27;111071;-64
2023/08/04 09:49:15;;;;;;;2.20;1.50;;;20.10;99.90;20.70;100160.00;;;;4991307;27;87447;-64
2023/08/04 09:51:43;;;;;;;2.53;1.77;;;20.40;99.90;21.10;100158.00;;;;4995515;27;116506;-64
2023/08/04 09:54:10;;;;;;;1.92;1.45;;;20.70;99.90;21.30;100158.00;;;;4993345;27;87693;-63
2023/08/04 09:56:36;;;;;;;8.57;1.58;;;21.00;99.90;21.60;100154.00;;;;4993675;27;89040;-62
2023/08/04 09:59:03;;;;;;;1.30;1.20;;;21.50;99.90;21.80;100158.00;;;;4988356;27;97388;-63
2023/08/04 10:01:29;;;;;;;0.82;0.82;;;21.50;99.90;22.10;100152.00;;;;4993065;28;88010;-62
2023/08/04 10:03:57;;;;;;;6.10;2.45;;;21.90;99.90;22.30;100156.00;;;;4995983;27;87279;-62
2023/08/04 10:06:26;;;;;;;2.67;1.75;;;21.90;99.90;22.40;100159.00;;;;5004235;27;87868;-62
2023/08/04 10:08:55;;;;;;;1.42;1.33;;;22.10;99.90;22.50;100159.00;;;;5000576;27;94214;-62
2023/08/04 10:11:22;;;;;;;9.02;2.10;;;22.20;99.90;22.60;100161.00;;;;4996484;27;88883;-62
2023/08/04 10:13:54;;;;;;;1.20;1.00;;;22.40;99.90;22.60;100164.00;;;;4993330;27;87881;-62
2023/08/04 10:16:25;;;;;;;3.38;2.35;;;22.40;99.90;22.50;100175.00;;;;4993837;27;87122;-63
2023/08/04 10:18:55;;;;;;;8.07;4.72;;;22.30;99.90;22.30;100186.00;;;;4989763;27;87844;-62
2023/08/04 10:21:40;;;;;;;4.40;2.35;;;22.20;99.90;21.90;100175.00;;;;4994908;27;88776;-63
2023/08/04 10:24:08;;;;;;;3.03;2.58;;;21.90;99.90;21.60;100187.00;;;;4999270;27;100562;-63
2023/08/04 10:26:49;;;;;;;5.95;3.53;;;21.60;99.90;21.30;100177.00;;;;4990411;27;88120;-62
2023/08/04 10:29:17;;;;;;;4.13;1.33;;;21.40;99.90;21.20;100173.00;;;;4994221;27;87777;-62
2023/08/04 10:31:56;;;;;;;1.92;1.17;;;21.20;99.90;21.10;100167.00;;;;4989974;27;87993;-64
2023/08/04 10:34:31;;;;;;;1.10;1.00;;;21.00;99.90;21.10;100160.00;;;;4993343;27;88623;-62
2023/08/04 10:37:11;;;;;;;1.70;0.85;;;21.00;99.90;21.30;100172.00;;;;4993175;27;87385;-63
2023/08/04 10:39:39;;;;;;;2.15;1.10;;;21.10;99.90;21.80;100166.00;;;;4990898;27;87621;-63
2023/08/04 10:42:29;;;;;;;1.15;0.70;;;21.40;99.90;22.30;100159.00;;;;4993417;27;107098;-63
2023/08/04 10:45:04;;;;;;;1.55;1.27;;;21.80;99.90;22.70;100169.00;;;;4986628;27;87983;-63
2023/08/04 10:47:47;;;;;;;2.75;2.03;;;22.30;99.90;23.10;100162.00;;;;4994149;27;87988;-63